createdAt,value
2023-04-19T00:02:16.814Z,17.25
2023-04-19T00:04:47.753Z,17.48
2023-04-19T00:07:15.072Z,17.23
2023-04-19T00:09:42.303Z,16.65
2023-04-19T00:12:09.571Z,17.02
2023-04-19T00:14:36.831Z,16.52
2023-04-19T00:17:04.185Z,17.08
2023-04-19T00:19:31.490Z,16.63
2023-04-19T00:21:59.446Z,16.63
2023-04-19T00:24:26.773Z,15.82
2023-04-19T00:26:54.097Z,16.38
2023-04-19T00:29:21.427Z,15.35
2023-04-19T00:31:49.316Z,16.20
2023-04-19T00:34:16.962Z,16.45
2023-04-19T00:36:44.350Z,17.38
2023-04-19T00:39:13.671Z,14.02
2023-04-19T00:41:40.983Z,14.45
2023-04-19T00:44:08.427Z,14.98
2023-04-19T00:46:37.809Z,13.45
2023-04-19T00:49:05.360Z,11.90
2023-04-19T00:51:33.622Z,11.65
2023-04-19T00:54:03.097Z,11.02
2023-04-19T00:56:30.964Z,11.27
2023-04-19T00:58:59.202Z,10.93
2023-04-19T01:01:26.511Z,12.35
2023-04-19T01:03:54.046Z,11.57
2023-04-19T01:06:21.597Z,11.90
2023-04-19T01:08:49.341Z,11.45
2023-04-19T01:11:16.558Z,11.45
2023-04-19T01:13:45.530Z,11.98
2023-04-19T01:16:12.847Z,11.25
2023-04-19T01:18:40.825Z,11.27
2023-04-19T01:21:09.417Z,11.48
2023-04-19T01:23:38.957Z,11.77
2023-04-19T01:26:06.572Z,11.45
2023-04-19T01:28:33.838Z,11.30
2023-04-19T01:31:01.287Z,11.85
2023-04-19T01:33:28.493Z,11.90
2023-04-19T01:35:55.856Z,11.07
2023-04-19T01:38:23.216Z,11.13
2023-04-19T01:40:50.653Z,11.20
2023-04-19T01:43:18.739Z,10.63
2023-04-19T01:45:46.290Z,11.45
2023-04-19T01:48:13.543Z,10.93
2023-04-19T01:50:40.932Z,10.98
2023-04-19T01:53:08.247Z,10.90
2023-04-19T01:55:35.505Z,11.20
2023-04-19T01:58:03.045Z,11.30
2023-04-19T02:00:30.351Z,11.15
2023-04-19T02:02:57.912Z,11.27
2023-04-19T02:05:25.250Z,10.70
2023-04-19T02:07:54.330Z,11.20
2023-04-19T02:10:21.653Z,10.48
2023-04-19T02:12:49.003Z,11.55
2023-04-19T02:15:16.320Z,10.75
2023-04-19T02:17:43.585Z,11.43
2023-04-19T02:20:11.095Z,10.55
2023-04-19T02:22:38.721Z,10.60
2023-04-19T02:25:06.888Z,10.80
2023-04-19T02:27:34.838Z,10.65
2023-04-19T02:30:02.130Z,9.85
2023-04-19T02:32:32.022Z,10.55
2023-04-19T02:34:59.392Z,10.13
2023-04-19T02:37:26.671Z,10.55
2023-04-19T02:39:57.610Z,10.07
2023-04-19T02:42:24.894Z,10.57
2023-04-19T02:44:54.326Z,10.45
2023-04-19T02:47:24.804Z,10.82
2023-04-19T02:49:52.215Z,10.80
2023-04-19T02:52:20.534Z,10.98
2023-04-19T02:54:48.501Z,10.65
2023-04-19T02:57:15.756Z,10.05
2023-04-19T02:59:44.215Z,10.30
2023-04-19T03:02:11.555Z,10.85
2023-04-19T03:04:38.952Z,10.27
2023-04-19T03:07:06.842Z,11.27
2023-04-19T03:09:34.329Z,10.55
2023-04-19T03:12:01.923Z,11.18
2023-04-19T03:14:29.334Z,10.90
2023-04-19T03:16:56.640Z,11.50
2023-04-19T03:19:24.352Z,11.48
2023-04-19T03:21:52.657Z,11.90
2023-04-19T03:24:31.965Z,11.07
2023-04-19T03:27:07.184Z,11.85
2023-04-19T03:29:34.452Z,11.18
2023-04-19T03:32:08.872Z,11.30
2023-04-19T03:34:36.332Z,11.30
2023-04-19T03:37:03.611Z,12.27
2023-04-19T03:39:32.466Z,11.75
2023-04-19T03:42:03.998Z,11.45
2023-04-19T03:44:54.476Z,11.95
2023-04-19T03:47:22.795Z,12.27
2023-04-19T03:49:51.792Z,12.23
2023-04-19T03:52:19.349Z,11.77
2023-04-19T03:54:46.600Z,12.07
2023-04-19T03:57:34.103Z,11.95
2023-04-19T04:00:09.761Z,11.77
2023-04-19T04:02:57.196Z,12.95
2023-04-19T04:05:27.802Z,12.02
2023-04-19T04:07:56.371Z,13.25
2023-04-19T04:10:23.909Z,12.80
2023-04-19T04:12:51.705Z,12.50
2023-04-19T04:15:26.024Z,13.15
2023-04-19T04:17:54.681Z,14.77
2023-04-19T04:20:22.119Z,14.02
2023-04-19T04:22:52.729Z,13.50
2023-04-19T04:25:23.036Z,13.52
2023-04-19T04:27:52.487Z,13.05
2023-04-19T04:30:21.785Z,13.50
2023-04-19T04:32:51.406Z,13.82
2023-04-19T04:35:19.307Z,13.60
2023-04-19T04:37:54.326Z,13.32
2023-04-19T04:40:21.723Z,13.80
2023-04-19T04:42:49.618Z,14.00
2023-04-19T04:45:18.634Z,14.52
2023-04-19T04:47:46.493Z,14.00
2023-04-19T04:50:14.780Z,14.30
2023-04-19T04:52:42.061Z,14.60
2023-04-19T04:55:24.185Z,13.52
2023-04-19T04:57:51.577Z,14.32
2023-04-19T05:00:28.852Z,14.32
2023-04-19T05:03:14.362Z,14.32
2023-04-19T05:05:47.777Z,14.82
2023-04-19T05:08:15.077Z,14.32
2023-04-19T05:10:42.396Z,14.70
2023-04-19T05:13:09.967Z,13.98
2023-04-19T05:15:37.890Z,14.50
2023-04-19T05:18:06.043Z,14.05
2023-04-19T05:20:36.413Z,14.40
2023-04-19T05:23:11.629Z,15.50
2023-04-19T05:25:39.615Z,15.27
2023-04-19T05:28:07.041Z,15.00
2023-04-19T05:30:44.057Z,15.55
2023-04-19T05:33:11.547Z,14.77
2023-04-19T05:35:39.502Z,15.30
2023-04-19T05:38:06.999Z,14.93
2023-04-19T05:40:35.805Z,15.10
2023-04-19T05:43:03.046Z,15.75
2023-04-19T05:45:30.594Z,14.90
2023-04-19T05:47:58.218Z,15.13
2023-04-19T05:50:44.196Z,14.43
2023-04-19T05:53:30.443Z,14.88
2023-04-19T05:55:58.706Z,15.23
2023-04-19T05:58:26.145Z,15.00
2023-04-19T06:00:53.553Z,14.93
2023-04-19T06:03:22.939Z,15.63
2023-04-19T06:05:51.426Z,15.30
2023-04-19T06:08:18.920Z,15.95
2023-04-19T06:10:54.871Z,15.02
2023-04-19T06:13:25.855Z,16.48
2023-04-19T06:15:53.243Z,14.75
2023-04-19T06:18:20.611Z,15.25
2023-04-19T06:20:48.188Z,15.65
2023-04-19T06:23:15.639Z,15.02
2023-04-19T06:25:42.970Z,14.80
2023-04-19T06:28:10.956Z,16.15
2023-04-19T06:30:38.494Z,16.17
2023-04-19T06:33:05.976Z,15.30
2023-04-19T06:35:33.437Z,16.45
2023-04-19T06:38:02.110Z,15.75
2023-04-19T06:40:29.605Z,15.95
2023-04-19T06:42:56.842Z,15.55
2023-04-19T06:45:24.080Z,16.50
2023-04-19T06:47:51.405Z,15.43
2023-04-19T06:50:18.790Z,16.80
2023-04-19T06:52:46.038Z,16.48
2023-04-19T06:55:13.282Z,16.67
2023-04-19T06:57:40.913Z,16.33
2023-04-19T07:00:08.849Z,16.85
2023-04-19T07:02:36.350Z,19.45
2023-04-19T07:05:04.130Z,17.10
2023-04-19T07:07:33.259Z,17.42
2023-04-19T07:10:00.613Z,17.98
2023-04-19T07:12:27.952Z,16.48
2023-04-19T07:14:57.265Z,17.42
2023-04-19T07:17:24.635Z,16.65
2023-04-19T07:19:51.942Z,16.20
2023-04-19T07:22:19.097Z,16.98
2023-04-19T07:24:46.364Z,15.88
2023-04-19T07:27:14.486Z,15.90
2023-04-19T07:29:41.838Z,18.20
2023-04-19T07:32:09.491Z,17.20
2023-04-19T07:34:38.095Z,19.02
2023-04-19T07:37:05.327Z,17.98
2023-04-19T07:39:32.965Z,16.83
2023-04-19T07:42:01.528Z,16.08
2023-04-19T07:44:28.826Z,16.00
2023-04-19T07:46:56.225Z,16.00
2023-04-19T07:49:23.785Z,15.80
2023-04-19T07:51:51.404Z,16.17
2023-04-19T07:54:20.585Z,16.45
2023-04-19T07:56:47.767Z,17.20
2023-04-19T07:59:16.365Z,17.80
2023-04-19T08:01:43.769Z,17.98
2023-04-19T08:04:11.312Z,16.73
2023-04-19T08:06:40.647Z,17.00
2023-04-19T08:09:08.059Z,17.23
2023-04-19T08:11:35.290Z,17.52
2023-04-19T08:14:11.872Z,16.55
2023-04-19T08:21:46.773Z,15.68
2023-04-19T08:24:14.340Z,16.80
2023-04-19T08:26:42.534Z,15.43
2023-04-19T08:29:09.857Z,15.93
2023-04-19T08:31:37.555Z,15.90
2023-04-19T08:34:04.903Z,16.17
2023-04-19T08:36:39.130Z,15.13
2023-04-19T08:39:28.983Z,15.73
2023-04-19T08:42:06.811Z,16.40
2023-04-19T08:44:51.032Z,14.70
2023-04-19T08:47:33.594Z,15.48
2023-04-19T08:52:47.968Z,14.75
2023-04-19T08:55:19.658Z,15.43
2023-04-19T08:57:46.988Z,15.50
2023-04-19T09:00:15.899Z,14.98
2023-04-19T09:02:48.302Z,15.00
2023-04-19T09:05:18.383Z,16.60
2023-04-19T09:10:19.585Z,15.23
2023-04-19T09:13:01.998Z,15.50
2023-04-19T09:15:41.916Z,15.32
2023-04-19T09:18:10.332Z,15.63
2023-04-19T09:20:42.683Z,16.90
2023-04-19T09:23:15.044Z,16.63
2023-04-19T09:28:28.820Z,16.95
2023-04-19T09:31:05.744Z,16.50
2023-04-19T09:33:44.615Z,14.85
2023-04-19T09:36:14.594Z,15.27
2023-04-19T09:38:49.698Z,13.90
2023-04-19T09:41:20.864Z,14.20
2023-04-19T09:46:36.291Z,13.52
2023-04-19T09:49:30.208Z,13.60
2023-04-19T09:52:07.813Z,12.77
2023-04-19T09:54:35.068Z,13.40
2023-04-19T09:57:02.846Z,14.75
2023-04-19T09:59:30.559Z,13.68
2023-04-19T10:01:58.827Z,13.65
2023-04-19T10:04:38.430Z,15.82
2023-04-19T10:12:45.632Z,12.77
2023-04-19T10:15:06.670Z,13.45
2023-04-19T10:17:34.369Z,13.53
2023-04-19T10:20:07.784Z,12.35
2023-04-19T10:22:37.870Z,12.00
2023-04-19T10:25:15.820Z,11.93
2023-04-19T10:27:49.000Z,11.48
2023-04-19T10:30:21.322Z,10.98
2023-04-19T10:33:07.707Z,11.48
2023-04-19T10:35:37.651Z,12.75
2023-04-19T10:38:12.818Z,12.50
2023-04-19T10:40:52.855Z,12.98
2023-04-19T10:43:20.849Z,12.85
2023-04-19T10:45:51.772Z,12.50
2023-04-19T10:48:33.365Z,13.30
2023-04-19T10:51:16.074Z,12.15
2023-04-19T10:53:47.266Z,12.73
2023-04-19T10:56:22.174Z,13.02
2023-04-19T10:59:01.802Z,11.82
2023-04-19T11:01:45.991Z,11.70
2023-04-19T11:04:23.661Z,12.40
2023-04-19T11:06:55.414Z,14.15
2023-04-19T11:09:29.627Z,13.00
2023-04-19T11:12:16.890Z,12.43
2023-04-19T11:15:02.947Z,12.20
2023-04-19T11:17:32.186Z,10.95
2023-04-19T11:20:07.394Z,11.03
2023-04-19T11:22:42.808Z,11.30
2023-04-19T11:25:10.906Z,11.93
2023-04-19T11:27:39.361Z,11.38
2023-04-19T11:30:09.335Z,11.48
2023-04-19T11:32:37.067Z,11.32
2023-04-19T11:35:06.577Z,10.35
2023-04-19T11:37:36.343Z,9.93
2023-04-19T11:40:07.829Z,10.30
2023-04-19T11:42:36.429Z,10.70
2023-04-19T11:45:04.071Z,9.95
2023-04-19T11:47:32.524Z,9.52
2023-04-19T11:50:38.295Z,10.73
2023-04-19T11:53:17.357Z,8.48
2023-04-19T11:55:51.255Z,9.43
2023-04-19T11:58:32.267Z,9.15
2023-04-19T12:01:09.862Z,9.43
2023-04-19T12:03:51.528Z,9.15
2023-04-19T12:06:24.037Z,10.52
2023-04-19T12:08:52.704Z,8.40
2023-04-19T12:11:23.420Z,8.00
2023-04-19T12:14:11.121Z,7.82
2023-04-19T12:16:38.769Z,8.05
2023-04-19T12:19:14.360Z,7.15
2023-04-19T12:21:41.801Z,7.85
2023-04-19T12:24:09.487Z,6.63
2023-04-19T12:26:37.373Z,6.32
2023-04-19T12:29:05.718Z,6.03
2023-04-19T12:31:33.694Z,6.47
2023-04-19T12:34:01.124Z,5.70
2023-04-19T12:36:28.464Z,6.60
2023-04-19T12:38:55.914Z,6.38
2023-04-19T12:41:23.247Z,9.85
2023-04-19T12:43:50.616Z,6.93
2023-04-19T12:46:17.995Z,7.40
2023-04-19T12:48:46.855Z,6.72
2023-04-19T12:51:14.136Z,6.10
2023-04-19T12:53:51.158Z,6.70
2023-04-19T12:56:18.727Z,5.68
2023-04-19T12:58:46.028Z,5.85
2023-04-19T13:01:13.603Z,7.45
2023-04-19T13:03:41.102Z,7.47
2023-04-19T13:06:08.919Z,5.75
2023-04-19T13:08:44.749Z,5.45
2023-04-19T13:11:14.349Z,5.03
2023-04-19T13:13:44.470Z,4.68
2023-04-19T13:16:11.790Z,5.28
2023-04-19T13:18:39.041Z,4.68
2023-04-19T13:21:08.330Z,4.80
2023-04-19T13:23:36.310Z,4.90
2023-04-19T13:26:03.867Z,4.57
2023-04-19T13:28:31.457Z,4.30
2023-04-19T13:30:58.826Z,4.43
2023-04-19T13:33:26.935Z,4.45
2023-04-19T13:35:54.237Z,4.20
2023-04-19T13:38:21.531Z,6.68
2023-04-19T13:40:48.889Z,4.75
2023-04-19T13:43:16.618Z,4.70
2023-04-19T13:45:43.879Z,3.97
2023-04-19T13:48:11.376Z,4.05
2023-04-19T13:50:39.293Z,4.30
2023-04-19T13:53:06.629Z,4.15
2023-04-19T13:55:34.030Z,3.70
2023-04-19T13:58:01.800Z,7.25
2023-04-19T14:00:29.173Z,3.90
2023-04-19T14:02:56.988Z,4.10
2023-04-19T14:05:24.465Z,4.38
2023-04-19T14:07:52.488Z,4.30
2023-04-19T14:10:19.783Z,4.10
2023-04-19T14:12:47.578Z,4.05
2023-04-19T14:15:15.097Z,4.15
2023-04-19T14:17:42.762Z,4.00
2023-04-19T14:20:11.211Z,3.42
2023-04-19T14:22:39.023Z,4.13
2023-04-19T14:25:06.876Z,4.28
2023-04-19T14:27:34.326Z,4.15
2023-04-19T14:30:01.921Z,3.40
2023-04-19T14:32:29.200Z,3.47
2023-04-19T14:34:56.598Z,3.63
2023-04-19T14:37:24.787Z,3.90
2023-04-19T14:39:52.685Z,3.90
2023-04-19T14:42:22.645Z,3.70
2023-04-19T14:44:51.684Z,3.88
2023-04-19T14:47:19.301Z,3.70
2023-04-19T14:49:46.705Z,3.92
2023-04-19T14:52:13.962Z,3.40
2023-04-19T14:54:41.868Z,3.45
2023-04-19T14:57:09.534Z,3.80
2023-04-19T14:59:37.408Z,3.20
2023-04-19T15:02:05.572Z,3.10
2023-04-19T15:04:39.015Z,3.28
2023-04-19T15:07:08.173Z,2.92
2023-04-19T15:09:35.498Z,3.30
2023-04-19T15:12:02.921Z,3.00
2023-04-19T15:14:30.169Z,3.10
2023-04-19T15:16:58.295Z,3.00
2023-04-19T15:19:25.830Z,2.92
2023-04-19T15:21:53.663Z,3.10
2023-04-19T15:24:20.857Z,2.92
2023-04-19T15:26:48.295Z,2.92
2023-04-19T15:29:15.809Z,3.08
2023-04-19T15:31:43.455Z,3.10
2023-04-19T15:34:10.707Z,2.95
2023-04-19T15:36:38.103Z,2.88
2023-04-19T15:39:05.460Z,3.00
2023-04-19T15:41:32.681Z,2.85
2023-04-19T15:43:59.917Z,2.63
2023-04-19T15:46:27.310Z,2.83
2023-04-19T15:48:54.737Z,2.63
2023-04-19T15:51:24.123Z,3.03
2023-04-19T15:53:52.129Z,3.17
2023-04-19T15:56:20.350Z,2.90
2023-04-19T15:58:47.676Z,3.05
2023-04-19T16:01:16.411Z,2.85
2023-04-19T16:03:45.974Z,3.00
2023-04-19T16:06:13.787Z,2.90
2023-04-19T16:08:41.130Z,2.95
2023-04-19T16:11:08.665Z,3.00
2023-04-19T16:13:36.050Z,3.22
2023-04-19T16:16:03.392Z,3.22
2023-04-19T16:18:30.857Z,3.10
2023-04-19T16:20:58.161Z,3.63
2023-04-19T16:23:25.675Z,3.80
2023-04-19T16:25:54.264Z,3.55
2023-04-19T16:28:23.594Z,4.20
2023-04-19T16:30:50.954Z,4.55
2023-04-19T16:33:18.398Z,4.10
2023-04-19T16:35:45.827Z,4.15
2023-04-19T16:38:13.119Z,4.25
2023-04-19T16:40:40.379Z,4.40
2023-04-19T16:43:07.630Z,4.13
2023-04-19T16:45:34.888Z,5.82
2023-04-19T16:48:02.400Z,7.55
2023-04-19T16:50:29.689Z,3.92
2023-04-19T16:52:56.897Z,3.83
2023-04-19T16:55:24.304Z,3.72
2023-04-19T16:57:53.671Z,3.03
2023-04-19T17:00:21.967Z,3.40
2023-04-19T17:02:49.482Z,3.22
2023-04-19T17:05:17.201Z,3.30
2023-04-19T17:07:44.572Z,3.03
2023-04-19T17:10:12.609Z,3.20
2023-04-19T17:12:40.162Z,3.13
2023-04-19T17:15:07.966Z,3.35
2023-04-19T17:17:35.559Z,3.22
2023-04-19T17:20:04.296Z,3.40
2023-04-19T17:22:31.523Z,3.50
2023-04-19T17:24:58.977Z,3.70
2023-04-19T17:27:28.871Z,3.47
2023-04-19T17:29:56.037Z,3.30
2023-04-19T17:32:23.384Z,3.30
2023-04-19T17:34:50.806Z,3.65
2023-04-19T17:37:18.110Z,3.25
2023-04-19T17:39:45.343Z,3.90
2023-04-19T17:42:12.547Z,3.83
2023-04-19T17:44:39.865Z,3.05
2023-04-19T17:47:07.319Z,3.70
2023-04-19T17:49:34.640Z,3.55
2023-04-19T17:52:02.298Z,3.80
2023-04-19T17:54:29.601Z,3.50
2023-04-19T17:56:59.451Z,3.50
2023-04-19T17:59:26.851Z,3.63
2023-04-19T18:01:54.308Z,3.60
2023-04-19T18:04:21.885Z,3.67
2023-04-19T18:06:49.803Z,3.97
2023-04-19T18:09:18.372Z,3.88
2023-04-19T18:11:46.177Z,4.03
2023-04-19T18:14:15.285Z,3.65
2023-04-19T18:16:42.777Z,3.45
2023-04-19T18:19:10.297Z,4.00
2023-04-19T18:21:37.616Z,3.70
2023-04-19T18:24:05.385Z,3.65
2023-04-19T18:26:40.612Z,3.65
2023-04-19T18:29:12.755Z,3.50
2023-04-19T18:31:41.692Z,3.80
2023-04-19T18:34:11.234Z,3.53
2023-04-19T18:36:39.827Z,3.78
2023-04-19T18:39:07.224Z,4.30
2023-04-19T18:41:35.509Z,4.03
2023-04-19T18:46:33.414Z,4.63
2023-04-19T18:49:01.136Z,4.13
2023-04-19T18:51:28.960Z,4.10
2023-04-19T18:53:56.264Z,5.03
2023-04-19T18:56:54.295Z,5.22
2023-04-19T18:59:11.266Z,4.55
2023-04-19T19:01:38.872Z,4.45
2023-04-19T19:09:04.067Z,4.25
2023-04-19T19:14:03.049Z,3.53
2023-04-19T19:16:31.293Z,4.22
2023-04-19T19:18:58.619Z,4.03
2023-04-19T19:21:27.439Z,4.35
2023-04-19T19:23:57.711Z,4.53
2023-04-19T19:26:26.179Z,4.60
2023-04-19T19:28:53.650Z,4.88
2023-04-19T19:31:21.348Z,4.38
2023-04-19T19:33:57.050Z,4.22
2023-04-19T19:36:36.450Z,4.63
2023-04-19T19:39:03.937Z,4.65
2023-04-19T19:42:03.431Z,4.75
2023-04-19T19:44:18.606Z,5.30
2023-04-19T19:46:46.404Z,4.68
2023-04-19T19:49:14.068Z,4.65
2023-04-19T19:51:53.312Z,5.38
2023-04-19T19:54:24.740Z,5.15
2023-04-19T19:59:29.178Z,5.28
2023-04-19T20:01:58.093Z,5.38
2023-04-19T20:04:25.945Z,5.05
2023-04-19T20:11:50.864Z,4.25
2023-04-19T20:14:18.370Z,4.60
2023-04-19T20:16:45.880Z,4.50
2023-04-19T20:19:14.854Z,4.40
2023-04-19T20:21:42.405Z,4.40
2023-04-19T20:24:10.153Z,3.97
2023-04-19T20:26:38.885Z,4.15
2023-04-19T20:29:06.493Z,4.30
2023-04-19T20:31:33.762Z,4.40
2023-04-19T20:34:01.565Z,4.10
2023-04-19T20:36:31.879Z,4.60
2023-04-19T20:39:01.732Z,4.70
2023-04-19T20:41:29.248Z,4.50
2023-04-19T20:43:57.265Z,5.20
2023-04-19T20:46:24.816Z,5.85
2023-04-19T20:48:52.154Z,5.55
2023-04-19T20:51:19.466Z,6.28
2023-04-19T20:53:46.750Z,6.65
2023-04-19T20:56:14.077Z,7.03
2023-04-19T20:58:43.907Z,6.63
2023-04-19T21:01:14.342Z,6.78
2023-04-19T21:03:41.881Z,6.38
2023-04-19T21:06:09.406Z,6.50
2023-04-19T21:08:36.848Z,6.85
2023-04-19T21:11:04.252Z,6.95
2023-04-19T21:13:32.426Z,6.68
2023-04-19T21:15:59.769Z,6.55
2023-04-19T21:18:30.094Z,7.03
2023-04-19T21:23:25.191Z,6.60
2023-04-19T21:25:52.481Z,6.63
2023-04-19T21:28:20.379Z,6.60
2023-04-19T21:30:47.774Z,6.43
2023-04-19T21:33:18.092Z,6.45
2023-04-19T21:35:45.440Z,6.53
2023-04-19T21:38:12.868Z,6.28
2023-04-19T21:40:40.210Z,6.65
2023-04-19T21:43:07.507Z,6.32
2023-04-19T21:45:35.296Z,6.65
2023-04-19T21:48:02.729Z,6.68
2023-04-19T21:50:30.425Z,6.68
2023-04-19T21:52:57.687Z,6.80
2023-04-19T21:55:25.133Z,6.45
2023-04-19T21:57:52.452Z,6.22
2023-04-19T22:00:19.941Z,5.85
2023-04-19T22:02:47.285Z,5.40
2023-04-19T22:05:14.958Z,5.68
2023-04-19T22:07:42.719Z,5.57
2023-04-19T22:10:10.150Z,5.00
2023-04-19T22:12:45.152Z,5.63
2023-04-19T22:15:18.782Z,4.95
2023-04-19T22:17:46.134Z,5.70
2023-04-19T22:20:14.807Z,5.30
2023-04-19T22:22:42.053Z,5.30
2023-04-19T22:25:09.639Z,5.18
2023-04-19T22:27:36.957Z,5.60
2023-04-19T22:30:04.763Z,5.13
2023-04-19T22:32:32.163Z,5.13
2023-04-19T22:34:59.464Z,5.28
2023-04-19T22:37:26.745Z,5.40
2023-04-19T22:39:54.102Z,5.35
2023-04-19T22:42:21.758Z,5.03
2023-04-19T22:44:48.998Z,5.38
2023-04-19T22:47:16.987Z,5.10
2023-04-19T22:49:45.102Z,5.60
2023-04-19T22:52:12.779Z,5.32
2023-04-19T22:54:40.032Z,4.90
2023-04-19T22:57:07.313Z,5.68
2023-04-19T22:59:34.562Z,5.72
2023-04-19T23:02:01.863Z,5.32
2023-04-19T23:04:33.890Z,5.30
2023-04-19T23:07:01.172Z,5.70
2023-04-19T23:09:29.821Z,5.60
2023-04-19T23:11:58.721Z,5.82
2023-04-19T23:14:25.989Z,5.38
2023-04-19T23:16:57.136Z,5.70
2023-04-19T23:19:25.354Z,5.85
2023-04-19T23:21:52.767Z,5.45
2023-04-19T23:24:20.114Z,6.20
2023-04-19T23:26:47.428Z,6.07
2023-04-19T23:29:18.604Z,6.15
2023-04-19T23:31:46.149Z,5.60
2023-04-19T23:34:14.126Z,5.88
2023-04-19T23:36:41.516Z,5.32
2023-04-19T23:39:08.783Z,5.75
2023-04-19T23:41:36.394Z,6.07
2023-04-19T23:44:03.642Z,5.53
2023-04-19T23:46:31.049Z,5.40
2023-04-19T23:48:58.277Z,5.50
2023-04-19T23:51:25.522Z,5.97
2023-04-19T23:53:52.810Z,5.50
2023-04-19T23:56:20.037Z,6.10
2023-04-19T23:58:47.226Z,5.68
